createdAt,value
2023-05-25T00:06:01.560Z,99.90
2023-05-25T00:13:02.566Z,99.90
2023-05-25T00:20:07.674Z,99.90
2023-05-25T00:27:08.451Z,99.90
2023-05-25T00:34:09.177Z,99.90
2023-05-25T00:41:09.862Z,99.90
2023-05-25T00:48:10.964Z,99.90
2023-05-25T00:55:14.973Z,99.90
2023-05-25T01:02:17.692Z,99.90
2023-05-25T01:09:22.189Z,99.90
2023-05-25T01:16:23.314Z,99.90
2023-05-25T01:23:30.147Z,99.90
2023-05-25T01:30:32.879Z,99.90
2023-05-25T01:37:37.426Z,99.90
2023-05-25T01:44:39.233Z,99.90
2023-05-25T01:52:00.860Z,99.90
2023-05-25T01:59:02.956Z,99.90
2023-05-25T02:06:05.446Z,99.90
2023-05-25T02:13:09.058Z,99.90
2023-05-25T02:20:09.990Z,99.90
2023-05-25T02:27:12.703Z,99.90
2023-05-25T02:34:13.819Z,99.90
2023-05-25T02:41:16.182Z,99.90
2023-05-25T02:48:16.785Z,99.90
2023-05-25T02:55:18.732Z,99.90
2023-05-25T03:02:20.973Z,99.90
2023-05-25T03:09:21.978Z,99.90
2023-05-25T03:16:23.945Z,99.90
2023-05-25T03:23:24.361Z,99.90
2023-05-25T03:30:29.564Z,99.90
2023-05-25T03:37:31.440Z,99.90
2023-05-25T03:44:32.443Z,99.90
2023-05-25T03:51:33.058Z,99.90
2023-05-25T03:58:34.105Z,99.90
2023-05-25T04:05:34.577Z,99.90
2023-05-25T04:12:35.149Z,99.90
2023-05-25T04:19:35.885Z,99.90
2023-05-25T04:26:39.549Z,99.90
2023-05-25T04:33:40.618Z,99.90
2023-05-25T04:41:02.203Z,99.90
2023-05-25T04:48:03.637Z,99.90
2023-05-25T04:55:04.856Z,99.90
2023-05-25T05:02:08.831Z,99.90
2023-05-25T05:09:09.254Z,99.90
2023-05-25T05:16:09.572Z,99.90
2023-05-25T05:23:10.267Z,99.90
2023-05-25T05:30:11.417Z,99.90
2023-05-25T05:37:11.854Z,99.90
2023-05-25T05:44:12.254Z,99.90
2023-05-25T05:51:12.642Z,99.90
2023-05-25T05:58:12.948Z,99.90
2023-05-25T06:05:13.198Z,99.90
2023-05-25T06:12:15.508Z,99.90
2023-05-25T06:19:16.039Z,99.90
2023-05-25T06:26:16.472Z,99.90
2023-05-25T06:33:16.928Z,99.90
2023-05-25T06:40:18.615Z,99.90
2023-05-25T06:47:19.250Z,99.90
2023-05-25T06:54:20.778Z,99.90
2023-05-25T07:01:21.239Z,99.90
2023-05-25T07:08:21.802Z,99.90
2023-05-25T07:15:22.702Z,99.90
2023-05-25T07:22:23.678Z,99.90
2023-05-25T07:29:24.218Z,99.90
2023-05-25T07:36:25.787Z,99.90
2023-05-25T07:43:25.990Z,99.90
2023-05-25T07:50:26.430Z,99.90
2023-05-25T07:57:26.907Z,99.90
2023-05-25T08:04:27.696Z,99.90
2023-05-25T08:11:28.295Z,99.90
2023-05-25T08:18:28.593Z,99.90
2023-05-25T08:25:29.036Z,99.90
2023-05-25T08:32:29.589Z,99.90
2023-05-25T08:39:31.150Z,99.90
2023-05-25T08:46:32.373Z,99.90
2023-05-25T08:53:41.090Z,99.90
2023-05-25T09:00:48.235Z,99.90
2023-05-25T09:07:49.814Z,99.90
2023-05-25T09:14:50.764Z,99.90
2023-05-25T09:21:56.917Z,99.90
2023-05-25T09:29:03.453Z,99.90
2023-05-25T09:36:04.210Z,99.90
2023-05-25T09:43:05.265Z,99.90
2023-05-25T09:50:06.978Z,99.90
2023-05-25T09:57:07.733Z,99.90
2023-05-25T10:04:08.384Z,99.90
2023-05-25T10:11:08.861Z,99.90
2023-05-25T10:18:10.595Z,99.90
2023-05-25T10:25:28.916Z,99.90
2023-05-25T10:32:30.466Z,99.90
2023-05-25T10:39:31.570Z,99.90
2023-05-25T10:46:31.742Z,99.90
2023-05-25T10:53:32.221Z,99.90
2023-05-25T11:00:32.341Z,99.90
2023-05-25T11:07:51.652Z,99.90
2023-05-25T11:15:15.214Z,99.90
2023-05-25T11:22:23.678Z,99.90
2023-05-25T11:29:25.781Z,99.90
2023-05-25T11:36:26.224Z,99.90
2023-05-25T11:43:26.899Z,99.90
2023-05-25T11:50:28.118Z,99.90
2023-05-25T11:57:28.886Z,99.90
2023-05-25T12:04:30.687Z,99.90
2023-05-25T12:11:32.464Z,99.90
2023-05-25T12:18:32.717Z,99.90
2023-05-25T12:25:42.594Z,99.90
2023-05-25T12:33:03.367Z,99.90
2023-05-25T12:40:17.547Z,99.90
2023-05-25T12:47:25.175Z,99.90
2023-05-25T12:54:43.598Z,99.90
2023-05-25T13:01:47.732Z,99.90
2023-05-25T13:08:49.670Z,99.90
2023-05-25T13:15:50.171Z,99.90
2023-05-25T13:22:52.127Z,99.90
2023-05-25T13:29:52.696Z,99.90
2023-05-25T13:36:53.188Z,99.90
2023-05-25T13:43:53.612Z,99.90
2023-05-25T13:50:54.060Z,99.90
2023-05-25T13:57:54.481Z,99.90
2023-05-25T14:04:55.037Z,99.90
2023-05-25T14:11:55.119Z,99.90
2023-05-25T14:18:56.518Z,99.90
2023-05-25T14:25:56.889Z,99.90
2023-05-25T14:32:57.344Z,99.90
2023-05-25T14:39:57.765Z,99.90
2023-05-25T14:46:58.242Z,99.90
2023-05-25T14:54:00.391Z,99.60
2023-05-25T15:01:00.856Z,99.90
2023-05-25T15:08:01.301Z,99.20
2023-05-25T15:15:01.936Z,97.20
2023-05-25T15:22:02.921Z,95.50
2023-05-25T15:29:03.246Z,96.30
2023-05-25T15:36:03.729Z,94.20
2023-05-25T15:43:04.124Z,94.30
2023-05-25T15:50:04.764Z,94.10
2023-05-25T15:57:05.304Z,94.50
2023-05-25T16:04:05.644Z,93.60
2023-05-25T16:11:06.349Z,94.50
2023-05-25T16:18:07.745Z,93.20
2023-05-25T16:25:08.713Z,93.70
2023-05-25T16:32:09.062Z,94.30
2023-05-25T16:39:11.607Z,94.70
2023-05-25T16:46:12.123Z,94.80
2023-05-25T16:53:12.614Z,94.70
2023-05-25T17:00:14.040Z,94.40
2023-05-25T17:07:14.100Z,94.40
2023-05-25T17:14:14.429Z,93.90
2023-05-25T17:21:14.668Z,93.80
2023-05-25T17:28:15.048Z,94.50
2023-05-25T17:35:15.652Z,94.40
2023-05-25T17:42:16.747Z,94.10
2023-05-25T17:49:16.932Z,94.90
2023-05-25T17:56:17.436Z,95.00
2023-05-25T18:03:18.081Z,95.60
2023-05-25T18:10:18.609Z,95.90
2023-05-25T18:17:19.145Z,95.80
2023-05-25T18:24:19.319Z,96.10
2023-05-25T18:31:19.774Z,96.40
2023-05-25T18:38:20.243Z,96.60
2023-05-25T18:45:20.689Z,96.90
2023-05-25T18:52:20.950Z,97.10
2023-05-25T18:59:21.378Z,97.40
2023-05-25T19:06:22.287Z,97.60
2023-05-25T19:13:23.058Z,98.00
2023-05-25T19:20:23.508Z,98.40
2023-05-25T19:27:24.012Z,98.90
2023-05-25T19:34:24.499Z,99.20
2023-05-25T19:41:25.363Z,99.60
2023-05-25T19:48:27.394Z,99.90
2023-05-25T19:55:28.120Z,99.90
2023-05-25T20:02:28.585Z,99.90
2023-05-25T20:09:31.525Z,99.90
2023-05-25T20:16:31.748Z,99.90
2023-05-25T20:23:32.217Z,99.90
2023-05-25T20:30:32.613Z,99.90
2023-05-25T20:37:33.013Z,99.90
2023-05-25T20:44:33.406Z,99.90
2023-05-25T20:51:33.796Z,99.90
2023-05-25T20:58:34.499Z,99.90
2023-05-25T21:05:36.280Z,99.90
2023-05-25T21:12:36.820Z,99.90
2023-05-25T21:19:37.732Z,99.90
2023-05-25T21:26:37.983Z,99.90
2023-05-25T21:33:39.947Z,99.90
2023-05-25T21:40:40.324Z,99.90
2023-05-25T21:47:40.828Z,99.90
2023-05-25T21:54:41.281Z,99.90
2023-05-25T22:01:41.632Z,99.90
2023-05-25T22:08:42.055Z,99.90
2023-05-25T22:15:44.165Z,99.90
2023-05-25T22:22:44.884Z,99.90
2023-05-25T22:29:45.205Z,99.90
2023-05-25T22:36:45.658Z,99.90
2023-05-25T22:43:46.202Z,99.90
2023-05-25T22:50:46.681Z,99.90
2023-05-25T22:57:47.243Z,99.90
2023-05-25T23:04:47.905Z,99.90
2023-05-25T23:11:48.217Z,99.90
2023-05-25T23:18:48.655Z,99.90
2023-05-25T23:25:48.946Z,99.90
2023-05-25T23:32:49.342Z,99.90
2023-05-25T23:39:49.641Z,99.90
2023-05-25T23:46:50.700Z,99.90
2023-05-25T23:53:50.979Z,99.90
